Time;durP1;ratioP1;P1;durP2;ratioP2;P2;SDS_P1;SDS_P2;PMS_P1;PMS_P2;Temp;Humidity;BMP_temperature;BMP_pressure;BME280_temperature;BME280_humidity;BME280_pressure;Samples;Min_cycle;Max_cycle;Signal;HPM_P1;HPM_P2
2021/07/16 16:00:16;;;;;;;20.67;5.93;;;;;;;;;;1500953;31;20390;-79
2021/07/16 16:01:18;;;;;;;20.02;5.30;;;;;;;;;;1493748;39;21068;-79
2021/07/16 16:02:20;;;;;;;18.00;5.45;;;;;;;;;;1493513;39;20389;-81
2021/07/16 16:03:22;;;;;;;20.15;5.43;;;;;;;;;;1498329;39;20402;-80
2021/07/16 16:04:23;;;;;;;14.88;4.20;;;;;;;;;;1498122;39;20391;-80
2021/07/16 16:05:25;;;;;;;15.43;5.03;;;;;;;;;;1491272;39;20416;-81
2021/07/16 16:06:27;;;;;;;22.25;5.38;;;;;;;;;;1492789;39;20397;-81
2021/07/16 16:07:28;;;;;;;23.17;6.78;;;;;;;;;;1497794;39;20471;-79
2021/07/16 16:08:30;;;;;;;24.60;8.35;;;;;;;;;;1493193;39;20393;-80
2021/07/16 16:09:32;;;;;;;22.65;5.88;;;;;;;;;;1484891;39;20412;-80
2021/07/16 16:10:34;;;;;;;18.63;5.65;;;;;;;;;;1485135;39;20526;-80
2021/07/16 16:11:35;;;;;;;25.52;7.78;;;;;;;;;;1489178;39;20508;-80
2021/07/16 16:12:37;;;;;;;18.33;5.30;;;;;;;;;;1484322;39;20415;-80
2021/07/16 16:13:39;;;;;;;20.35;5.03;;;;;;;;;;1489105;39;21129;-82
2021/07/16 16:14:41;;;;;;;17.70;4.63;;;;;;;;;;1488892;39;20484;-82
2021/07/16 16:15:43;;;;;;;19.60;5.40;;;;;;;;;;1489150;39;20405;-82
2021/07/16 16:16:44;;;;;;;15.20;4.90;;;;;;;;;;1489296;39;20406;-80
2021/07/16 16:17:48;;;;;;;19.58;5.22;;;;;;;;;;1493627;39;20588;-80
2021/07/16 16:18:50;;;;;;;19.63;5.05;;;;;;;;;;1493227;39;20396;-81
2021/07/16 16:19:51;;;;;;;19.23;4.57;;;;;;;;;;1488950;39;20432;-81
2021/07/16 16:20:53;;;;;;;18.00;5.45;;;;;;;;;;1493685;39;20396;-80
2021/07/16 16:21:54;;;;;;;18.30;5.43;;;;;;;;;;1493270;39;20446;-80
2021/07/16 16:22:57;;;;;;;19.98;5.30;;;;;;;;;;1493723;39;20392;-80
2021/07/16 16:23:58;;;;;;;20.05;5.50;;;;;;;;;;1498342;39;20634;-84
2021/07/16 16:25:06;;;;;;;19.20;5.23;;;;;;;;;;1495959;39;20462;-79
2021/07/16 16:26:07;;;;;;;19.13;4.75;;;;;;;;;;1497912;39;20786;-79
2021/07/16 16:27:09;;;;;;;18.98;5.05;;;;;;;;;;1493109;39;20457;-80
2021/07/16 16:28:11;;;;;;;16.77;4.17;;;;;;;;;;1493400;39;20530;-84
2021/07/16 16:29:13;;;;;;;18.85;5.15;;;;;;;;;;1488964;39;20486;-79
2021/07/16 16:30:18;;;;;;;18.20;4.82;;;;;;;;;;1480863;39;20427;-80
2021/07/16 16:31:24;;;;;;;18.38;5.20;;;;;;;;;;1489708;39;20780;-79
2021/07/16 16:32:26;;;;;;;17.15;5.05;;;;;;;;;;1493243;39;20972;-79
2021/07/16 16:33:27;;;;;;;19.42;6.32;;;;;;;;;;1489207;39;20414;-80
2021/07/16 16:34:29;;;;;;;19.73;5.50;;;;;;;;;;1493280;39;20426;-79
2021/07/16 16:35:31;;;;;;;12.07;3.90;;;;;;;;;;1497824;39;20800;-78
2021/07/16 16:36:33;;;;;;;18.98;5.07;;;;;;;;;;1498005;39;20395;-79
2021/07/16 16:37:34;;;;;;;18.25;4.18;;;;;;;;;;1495047;39;20388;-79
2021/07/16 16:38:38;;;;;;;22.63;5.00;;;;;;;;;;1488697;39;20402;-81
2021/07/16 16:39:40;;;;;;;20.17;5.18;;;;;;;;;;1489368;39;20699;-81
2021/07/16 16:40:41;;;;;;;19.48;5.15;;;;;;;;;;1497766;39;20422;-81
2021/07/16 16:41:43;;;;;;;20.25;4.38;;;;;;;;;;1492772;39;20388;-80
2021/07/16 16:42:48;;;;;;;18.00;6.07;;;;;;;;;;1493485;39;20495;-79
2021/07/16 16:43:50;;;;;;;18.85;4.72;;;;;;;;;;1493360;39;20442;-80
2021/07/16 16:44:53;;;;;;;19.70;5.57;;;;;;;;;;1484525;39;20416;-80
2021/07/16 16:45:55;;;;;;;21.65;4.30;;;;;;;;;;1489602;39;20792;-79
2021/07/16 16:46:56;;;;;;;19.65;4.90;;;;;;;;;;1492667;39;20857;-81
2021/07/16 16:47:58;;;;;;;17.48;4.15;;;;;;;;;;1493560;39;20400;-79
2021/07/16 16:49:00;;;;;;;21.13;4.57;;;;;;;;;;1498065;39;20430;-80
2021/07/16 16:50:04;;;;;;;16.65;4.20;;;;;;;;;;1491272;39;20448;-80
2021/07/16 16:51:07;;;;;;;17.27;4.32;;;;;;;;;;1485002;39;20410;-82
2021/07/16 16:52:09;;;;;;;17.27;4.95;;;;;;;;;;1492212;39;20408;-79
2021/07/16 16:53:10;;;;;;;19.40;5.13;;;;;;;;;;1491748;39;20485;-80
2021/07/16 16:54:12;;;;;;;20.38;4.43;;;;;;;;;;1492344;39;20856;-80
2021/07/16 16:55:18;;;;;;;21.33;5.88;;;;;;;;;;1496744;39;20418;-80
2021/07/16 16:56:22;;;;;;;19.30;4.65;;;;;;;;;;1497314;39;20771;-80
2021/07/16 16:57:24;;;;;;;17.52;4.00;;;;;;;;;;1496837;39;20422;-82
2021/07/16 16:58:26;;;;;;;16.83;3.97;;;;;;;;;;1492476;39;20440;-80
2021/07/16 16:59:30;;;;;;;16.50;4.70;;;;;;;;;;1489556;39;20535;-80
2021/07/16 17:00:32;;;;;;;15.60;4.25;;;;;;;;;;1492703;39;20411;-80
2021/07/16 17:01:34;;;;;;;18.05;5.18;;;;;;;;;;1488266;39;20417;-80
2021/07/16 17:02:36;;;;;;;15.07;3.90;;;;;;;;;;1486417;39;20390;-81
2021/07/16 17:03:39;;;;;;;13.18;4.35;;;;;;;;;;1489001;39;20526;-81
2021/07/16 17:04:41;;;;;;;19.25;5.47;;;;;;;;;;1490045;39;20596;-82
2021/07/16 17:05:43;;;;;;;16.83;5.45;;;;;;;;;;1488436;39;20726;-82
2021/07/16 17:06:48;;;;;;;19.02;4.55;;;;;;;;;;1485869;39;20403;-81
2021/07/16 17:07:49;;;;;;;17.37;4.90;;;;;;;;;;1484887;39;20412;-80
2021/07/16 17:08:51;;;;;;;15.32;3.97;;;;;;;;;;1493247;39;20427;-81
2021/07/16 17:09:56;;;;;;;18.05;4.80;;;;;;;;;;1493770;39;20415;-81
2021/07/16 17:10:57;;;;;;;18.88;5.00;;;;;;;;;;1487821;39;21265;-80
2021/07/16 17:11:59;;;;;;;18.67;4.50;;;;;;;;;;1486431;39;20821;-81
2021/07/16 17:13:01;;;;;;;17.00;4.15;;;;;;;;;;1491274;39;20579;-79
2021/07/16 17:14:03;;;;;;;16.77;4.70;;;;;;;;;;1495573;39;21252;-80
2021/07/16 17:15:07;;;;;;;23.90;5.43;;;;;;;;;;1490136;39;20401;-80
2021/07/16 17:16:12;;;;;;;20.23;5.15;;;;;;;;;;1485810;39;20466;-79
2021/07/16 17:17:14;;;;;;;23.67;5.45;;;;;;;;;;1486538;39;20450;-80
2021/07/16 17:18:15;;;;;;;17.90;4.25;;;;;;;;;;1486102;39;20529;-79
2021/07/16 17:19:18;;;;;;;15.55;4.07;;;;;;;;;;1485867;39;20480;-80
2021/07/16 17:20:20;;;;;;;19.75;4.95;;;;;;;;;;1485281;40;20847;-79
2021/07/16 17:21:22;;;;;;;18.15;4.70;;;;;;;;;;1485946;39;20509;-80
2021/07/16 17:22:23;;;;;;;24.05;5.55;;;;;;;;;;1486299;40;20871;-80
2021/07/16 17:23:27;;;;;;;18.05;4.15;;;;;;;;;;1486266;39;21000;-87
2021/07/16 17:24:29;;;;;;;17.58;4.78;;;;;;;;;;1486494;39;20422;-80
2021/07/16 17:25:32;;;;;;;17.85;5.05;;;;;;;;;;1490321;39;20421;-80
2021/07/16 17:26:34;;;;;;;19.98;4.75;;;;;;;;;;1478076;40;20430;-80
2021/07/16 17:27:36;;;;;;;15.75;4.53;;;;;;;;;;1484560;39;20398;-80
2021/07/16 17:28:38;;;;;;;21.02;4.97;;;;;;;;;;1491176;39;20410;-81
2021/07/16 17:29:40;;;;;;;16.63;5.03;;;;;;;;;;1486369;39;20399;-84
2021/07/16 17:30:42;;;;;;;19.50;5.15;;;;;;;;;;1485303;39;20484;-84
2021/07/16 17:32:00;;;;;;;21.42;5.63;;;;;;;;;;1486094;39;20406;-81
2021/07/16 17:33:03;;;;;;;16.80;5.22;;;;;;;;;;1490846;39;20472;-82
2021/07/16 17:34:05;;;;;;;16.45;4.25;;;;;;;;;;1493845;39;20411;-82
2021/07/16 17:35:08;;;;;;;19.00;5.25;;;;;;;;;;1485570;40;20813;-82
2021/07/16 17:36:09;;;;;;;17.80;5.43;;;;;;;;;;1486041;39;20510;-82
2021/07/16 17:37:11;;;;;;;22.20;5.43;;;;;;;;;;1485399;40;20848;-80
2021/07/16 17:38:13;;;;;;;18.13;5.37;;;;;;;;;;1485989;39;20395;-80
2021/07/16 17:39:18;;;;;;;23.37;6.57;;;;;;;;;;1495499;39;20450;-81
2021/07/16 17:40:25;;;;;;;17.17;4.75;;;;;;;;;;1490774;39;20412;-81
2021/07/16 17:41:26;;;;;;;24.42;5.65;;;;;;;;;;1491062;39;21018;-80
2021/07/16 17:42:28;;;;;;;20.48;5.63;;;;;;;;;;1487195;40;20417;-80
2021/07/16 17:43:29;;;;;;;18.25;4.75;;;;;;;;;;1483703;40;20412;-80
2021/07/16 17:44:31;;;;;;;14.50;5.35;;;;;;;;;;1481526;40;20808;-81
2021/07/16 17:45:33;;;;;;;14.77;5.35;;;;;;;;;;1485378;39;20454;-81
2021/07/16 17:46:35;;;;;;;21.15;5.75;;;;;;;;;;1489740;39;20882;-80
2021/07/16 17:47:37;;;;;;;18.23;5.15;;;;;;;;;;1489849;39;20654;-81
2021/07/16 17:48:39;;;;;;;19.83;5.68;;;;;;;;;;1482206;40;20549;-83
2021/07/16 17:49:41;;;;;;;17.00;4.97;;;;;;;;;;1482038;39;20424;-84
2021/07/16 17:50:44;;;;;;;16.55;4.80;;;;;;;;;;1489907;39;20421;-82
2021/07/16 17:51:46;;;;;;;20.20;5.57;;;;;;;;;;1494392;39;20475;-81
2021/07/16 17:52:48;;;;;;;21.27;6.22;;;;;;;;;;1485642;39;20462;-81
2021/07/16 17:53:49;;;;;;;18.08;5.55;;;;;;;;;;1485431;39;20971;-81
2021/07/16 17:54:51;;;;;;;24.63;4.95;;;;;;;;;;1481164;40;21109;-82
2021/07/16 17:55:53;;;;;;;17.10;5.45;;;;;;;;;;1482506;39;20466;-81
2021/07/16 17:56:55;;;;;;;19.40;5.85;;;;;;;;;;1485234;39;20415;-81
2021/07/16 17:57:57;;;;;;;18.90;5.65;;;;;;;;;;1481389;40;20409;-82
2021/07/16 17:58:58;;;;;;;18.98;5.88;;;;;;;;;;1485011;39;20777;-81
2021/07/16 18:00:05;;;;;;;19.75;4.80;;;;;;;;;;1485014;40;20547;-81
2021/07/16 18:01:17;;;;;;;21.02;6.43;;;;;;;;;;1482007;40;20416;-80
2021/07/16 18:02:20;;;;;;;17.08;5.55;;;;;;;;;;1482946;40;20405;-80
2021/07/16 18:03:21;;;;;;;23.65;5.82;;;;;;;;;;1480986;40;20409;-80
2021/07/16 18:04:26;;;;;;;21.40;5.93;;;;;;;;;;1484460;39;20398;-81
2021/07/16 18:05:27;;;;;;;19.08;5.63;;;;;;;;;;1489632;39;20796;-81
2021/07/16 18:06:29;;;;;;;15.88;5.75;;;;;;;;;;1490220;39;20425;-80
2021/07/16 18:07:31;;;;;;;22.92;6.70;;;;;;;;;;1489320;39;21215;-80
2021/07/16 18:08:32;;;;;;;19.98;5.45;;;;;;;;;;1489560;39;20397;-81
2021/07/16 18:09:34;;;;;;;20.90;5.75;;;;;;;;;;1490044;39;20413;-80
2021/07/16 18:10:36;;;;;;;22.10;5.57;;;;;;;;;;1490581;39;20449;-81
2021/07/16 18:11:38;;;;;;;16.30;4.75;;;;;;;;;;1489237;39;20416;-82
2021/07/16 18:12:42;;;;;;;24.15;5.53;;;;;;;;;;1489612;39;20450;-81
2021/07/16 18:13:45;;;;;;;18.08;5.03;;;;;;;;;;1489962;39;20448;-81
2021/07/16 18:14:47;;;;;;;23.70;6.20;;;;;;;;;;1490078;39;20515;-80
2021/07/16 18:15:49;;;;;;;21.02;5.25;;;;;;;;;;1489308;39;20896;-82
2021/07/16 18:16:51;;;;;;;18.98;5.10;;;;;;;;;;1488909;39;20424;-82
2021/07/16 18:17:52;;;;;;;21.17;6.28;;;;;;;;;;1489647;39;20402;-81
2021/07/16 18:18:54;;;;;;;20.50;5.35;;;;;;;;;;1481064;40;20417;-82
2021/07/16 18:19:56;;;;;;;23.65;5.28;;;;;;;;;;1485221;39;20423;-81
2021/07/16 18:20:57;;;;;;;18.40;5.57;;;;;;;;;;1481988;40;20795;-82
2021/07/16 18:22:00;;;;;;;19.48;5.18;;;;;;;;;;1485205;40;20415;-81
2021/07/16 18:23:04;;;;;;;21.90;5.03;;;;;;;;;;1484934;39;20462;-81
2021/07/16 18:24:08;;;;;;;24.80;5.80;;;;;;;;;;1486096;39;20410;-81
2021/07/16 18:25:10;;;;;;;17.27;4.90;;;;;;;;;;1481328;40;20541;-81
2021/07/16 18:26:18;;;;;;;20.00;5.72;;;;;;;;;;1477927;40;20398;-81
2021/07/16 18:27:19;;;;;;;18.75;5.95;;;;;;;;;;1481663;39;20479;-80
2021/07/16 18:28:23;;;;;;;21.83;5.18;;;;;;;;;;1489569;39;20417;-82
2021/07/16 18:29:26;;;;;;;19.88;5.93;;;;;;;;;;1488308;39;21645;-80
2021/07/16 18:30:28;;;;;;;17.83;5.10;;;;;;;;;;1488821;39;20416;-79
2021/07/16 18:31:30;;;;;;;20.77;4.85;;;;;;;;;;1489872;39;20408;-80
2021/07/16 18:32:32;;;;;;;19.48;5.43;;;;;;;;;;1489529;39;20403;-79
2021/07/16 18:33:35;;;;;;;22.95;5.20;;;;;;;;;;1489422;39;20453;-80
2021/07/16 18:34:38;;;;;;;21.80;6.10;;;;;;;;;;1485152;40;20561;-79
2021/07/16 18:35:39;;;;;;;20.05;5.35;;;;;;;;;;1481236;39;20466;-82
2021/07/16 18:36:41;;;;;;;17.25;5.20;;;;;;;;;;1480663;40;20435;-82
2021/07/16 18:37:44;;;;;;;21.17;6.55;;;;;;;;;;1478274;39;20833;-81
2021/07/16 18:38:46;;;;;;;23.25;6.18;;;;;;;;;;1485226;39;20529;-83
2021/07/16 18:39:47;;;;;;;21.10;5.45;;;;;;;;;;1480992;40;20758;-81
2021/07/16 18:40:50;;;;;;;21.13;5.03;;;;;;;;;;1481047;39;20404;-81
2021/07/16 18:41:51;;;;;;;17.87;5.77;;;;;;;;;;1488173;39;20422;-81
2021/07/16 18:42:53;;;;;;;19.67;5.80;;;;;;;;;;1485048;40;20403;-82
2021/07/16 18:43:57;;;;;;;20.30;6.40;;;;;;;;;;1484811;40;20442;-79
2021/07/16 18:44:59;;;;;;;25.60;6.15;;;;;;;;;;1485507;39;20450;-80
2021/07/16 18:46:00;;;;;;;22.53;5.00;;;;;;;;;;1485011;39;20478;-81
2021/07/16 18:47:03;;;;;;;19.88;6.15;;;;;;;;;;1480940;40;20424;-82
2021/07/16 18:48:05;;;;;;;18.90;5.43;;;;;;;;;;1485183;40;21189;-83
2021/07/16 18:49:07;;;;;;;18.25;5.45;;;;;;;;;;1486912;39;20412;-81
2021/07/16 18:50:10;;;;;;;23.80;6.20;;;;;;;;;;1485286;39;20472;-81
2021/07/16 18:51:11;;;;;;;18.48;5.68;;;;;;;;;;1485753;39;20435;-81
2021/07/16 18:52:13;;;;;;;18.17;5.43;;;;;;;;;;1485317;40;20427;-81
2021/07/16 18:53:15;;;;;;;22.77;5.97;;;;;;;;;;1488006;39;20515;-81
2021/07/16 18:54:16;;;;;;;19.00;6.07;;;;;;;;;;1484576;39;20498;-83
2021/07/16 18:55:18;;;;;;;21.25;5.80;;;;;;;;;;1477013;40;20496;-80
2021/07/16 18:56:20;;;;;;;25.83;6.57;;;;;;;;;;1481772;40;20952;-85
2021/07/16 18:57:36;;;;;;;18.00;5.70;;;;;;;;;;1489750;39;20695;-81
2021/07/16 18:58:39;;;;;;;17.55;4.93;;;;;;;;;;1488533;39;20453;-87
2021/07/16 18:59:41;;;;;;;20.30;5.43;;;;;;;;;;1483183;40;20419;-87
2021/07/16 19:00:46;;;;;;;24.70;6.43;;;;;;;;;;1477675;40;20456;-82
2021/07/16 19:01:49;;;;;;;23.23;5.65;;;;;;;;;;1473591;40;20409;-81
2021/07/16 19:02:51;;;;;;;27.73;5.57;;;;;;;;;;1475902;40;20417;-85
2021/07/16 19:03:53;;;;;;;19.90;5.32;;;;;;;;;;1480089;40;20400;-79
2021/07/16 19:04:55;;;;;;;19.45;6.18;;;;;;;;;;1481010;40;20421;-79
2021/07/16 19:05:57;;;;;;;23.23;5.73;;;;;;;;;;1476317;40;21032;-79
2021/07/16 19:06:59;;;;;;;20.42;6.03;;;;;;;;;;1468837;40;20437;-81
2021/07/16 19:08:01;;;;;;;25.23;7.07;;;;;;;;;;1480999;39;20522;-80
2021/07/16 19:09:03;;;;;;;20.38;5.43;;;;;;;;;;1484720;40;21090;-79
2021/07/16 19:10:25;;;;;;;17.08;5.43;;;;;;;;;;1486600;39;20401;-81
2021/07/16 19:11:46;;;;;;;17.38;5.57;;;;;;;;;;1489587;39;20409;-82
2021/07/16 19:12:48;;;;;;;19.00;5.78;;;;;;;;;;1480552;40;21012;-80
2021/07/16 19:13:50;;;;;;;19.40;5.82;;;;;;;;;;1480973;39;20416;-82
2021/07/16 19:14:51;;;;;;;15.80;4.80;;;;;;;;;;1485013;40;20422;-81
2021/07/16 19:15:53;;;;;;;21.35;5.55;;;;;;;;;;1480559;40;20408;-82
2021/07/16 19:16:55;;;;;;;17.33;5.47;;;;;;;;;;1480899;40;20513;-82
2021/07/16 19:17:59;;;;;;;19.17;5.45;;;;;;;;;;1480688;40;21164;-81
2021/07/16 19:19:04;;;;;;;19.48;5.75;;;;;;;;;;1472830;40;20546;-81
2021/07/16 19:20:07;;;;;;;22.55;6.93;;;;;;;;;;1480386;39;20404;-83
2021/07/16 19:21:09;;;;;;;24.20;6.20;;;;;;;;;;1484767;40;20980;-81
2021/07/16 19:22:11;;;;;;;24.63;7.30;;;;;;;;;;1484907;39;20422;-79
2021/07/16 19:23:12;;;;;;;22.45;6.70;;;;;;;;;;1484971;40;20474;-80
2021/07/16 19:24:14;;;;;;;19.27;6.33;;;;;;;;;;1472436;40;20491;-80
2021/07/16 19:25:15;;;;;;;20.75;6.28;;;;;;;;;;1477166;40;20469;-80
2021/07/16 19:26:18;;;;;;;20.17;6.03;;;;;;;;;;1481363;40;20409;-81
2021/07/16 19:27:19;;;;;;;22.45;6.75;;;;;;;;;;1481611;39;21930;-80
2021/07/16 19:28:21;;;;;;;22.90;6.50;;;;;;;;;;1489850;39;20490;-81
2021/07/16 19:29:23;;;;;;;24.42;6.60;;;;;;;;;;1485046;40;20758;-79
2021/07/16 19:30:24;;;;;;;23.17;7.13;;;;;;;;;;1476781;40;20488;-80
2021/07/16 19:31:26;;;;;;;26.20;6.88;;;;;;;;;;1476597;40;20858;-80
2021/07/16 19:32:29;;;;;;;25.58;6.50;;;;;;;;;;1476782;40;20390;-80
2021/07/16 19:33:31;;;;;;;24.83;6.40;;;;;;;;;;1476724;40;20434;-79
2021/07/16 19:34:36;;;;;;;23.27;6.10;;;;;;;;;;1476851;40;20708;-79
2021/07/16 19:35:38;;;;;;;21.30;6.28;;;;;;;;;;1480956;40;20420;-80
2021/07/16 19:36:40;;;;;;;19.80;5.40;;;;;;;;;;1481115;40;20479;-80
2021/07/16 19:37:42;;;;;;;18.60;6.07;;;;;;;;;;1480633;40;20409;-81
2021/07/16 19:38:44;;;;;;;25.73;7.70;;;;;;;;;;1481171;40;20491;-80
2021/07/16 19:39:46;;;;;;;25.83;6.82;;;;;;;;;;1476362;40;20998;-81
2021/07/16 19:40:48;;;;;;;20.67;5.90;;;;;;;;;;1481282;40;20396;-81
2021/07/16 19:41:50;;;;;;;19.83;5.97;;;;;;;;;;1485631;40;20456;-79
2021/07/16 19:42:51;;;;;;;28.35;6.40;;;;;;;;;;1484922;39;20503;-80
2021/07/16 19:43:53;;;;;;;25.67;6.97;;;;;;;;;;1486168;40;20541;-79
2021/07/16 19:44:56;;;;;;;26.35;7.03;;;;;;;;;;1484457;40;20485;-78
2021/07/16 19:45:58;;;;;;;19.70;6.50;;;;;;;;;;1486608;39;20454;-79
2021/07/16 19:47:00;;;;;;;20.27;6.47;;;;;;;;;;1484237;40;20399;-79
2021/07/16 19:48:03;;;;;;;20.02;5.95;;;;;;;;;;1486425;39;20415;-80
2021/07/16 19:49:05;;;;;;;28.13;6.60;;;;;;;;;;1490863;39;20505;-79
2021/07/16 19:50:08;;;;;;;21.83;7.25;;;;;;;;;;1491203;39;20453;-80
2021/07/16 19:51:09;;;;;;;23.98;6.95;;;;;;;;;;1486874;40;20832;-80
2021/07/16 19:52:12;;;;;;;20.75;6.00;;;;;;;;;;1487599;39;20415;-80
2021/07/16 19:53:18;;;;;;;26.95;6.70;;;;;;;;;;1487415;40;21196;-80
2021/07/16 19:54:21;;;;;;;28.30;6.63;;;;;;;;;;1487293;39;20800;-80
2021/07/16 19:55:22;;;;;;;22.80;6.68;;;;;;;;;;1486418;40;20540;-79
2021/07/16 19:56:24;;;;;;;23.53;6.53;;;;;;;;;;1486179;39;20998;-79
2021/07/16 19:57:25;;;;;;;21.60;6.22;;;;;;;;;;1484569;40;20834;-80
2021/07/16 19:58:27;;;;;;;25.75;6.90;;;;;;;;;;1485749;40;20800;-79
2021/07/16 19:59:29;;;;;;;25.67;6.50;;;;;;;;;;1486619;39;20422;-80
2021/07/16 20:00:30;;;;;;;21.75;5.90;;;;;;;;;;1485577;40;20658;-80
2021/07/16 20:01:35;;;;;;;22.60;6.45;;;;;;;;;;1484768;39;20773;-80
2021/07/16 20:02:37;;;;;;;20.50;6.50;;;;;;;;;;1490388;39;20385;-80
2021/07/16 20:03:39;;;;;;;18.55;6.68;;;;;;;;;;1490105;39;20787;-79
2021/07/16 20:04:41;;;;;;;23.25;6.43;;;;;;;;;;1489960;39;20401;-80
2021/07/16 20:05:43;;;;;;;27.60;6.75;;;;;;;;;;1494834;39;20496;-81
2021/07/16 20:06:44;;;;;;;27.13;7.10;;;;;;;;;;1489863;39;20401;-81
2021/07/16 20:07:46;;;;;;;24.02;6.57;;;;;;;;;;1489987;39;20420;-81
2021/07/16 20:08:48;;;;;;;18.67;6.75;;;;;;;;;;1494480;39;20443;-79
2021/07/16 20:09:50;;;;;;;25.05;6.88;;;;;;;;;;1489223;39;20469;-79
2021/07/16 20:10:51;;;;;;;22.83;6.65;;;;;;;;;;1481671;40;20512;-79
2021/07/16 20:11:53;;;;;;;25.77;6.60;;;;;;;;;;1481490;39;20412;-79
2021/07/16 20:12:56;;;;;;;29.20;6.68;;;;;;;;;;1485733;40;20859;-79
2021/07/16 20:13:57;;;;;;;18.83;7.45;;;;;;;;;;1486375;39;20804;-79
2021/07/16 20:15:00;;;;;;;26.02;6.63;;;;;;;;;;1485612;39;20752;-80
2021/07/16 20:16:01;;;;;;;24.08;6.45;;;;;;;;;;1486445;39;20462;-79
2021/07/16 20:17:06;;;;;;;24.25;6.97;;;;;;;;;;1490645;39;20425;-81
2021/07/16 20:18:08;;;;;;;26.73;6.80;;;;;;;;;;1491207;39;20389;-79
2021/07/16 20:19:10;;;;;;;23.85;6.47;;;;;;;;;;1490050;39;20416;-80
2021/07/16 20:20:17;;;;;;;24.17;7.05;;;;;;;;;;1490412;39;20408;-79
2021/07/16 20:21:19;;;;;;;23.23;6.82;;;;;;;;;;1485734;40;20387;-79
2021/07/16 20:22:24;;;;;;;18.45;5.78;;;;;;;;;;1488556;39;20405;-81
2021/07/16 20:23:28;;;;;;;22.20;6.72;;;;;;;;;;1489336;39;20862;-80
2021/07/16 20:24:30;;;;;;;20.90;6.07;;;;;;;;;;1490154;39;20628;-80
2021/07/16 20:25:32;;;;;;;24.92;6.55;;;;;;;;;;1489539;39;20481;-80
2021/07/16 20:26:34;;;;;;;26.45;7.15;;;;;;;;;;1489972;39;20767;-81
2021/07/16 20:27:38;;;;;;;22.73;6.35;;;;;;;;;;1489632;39;20871;-81
2021/07/16 20:28:40;;;;;;;27.50;7.88;;;;;;;;;;1490214;39;20686;-83
2021/07/16 20:29:43;;;;;;;18.13;6.35;;;;;;;;;;1489884;39;21089;-81
2021/07/16 20:30:48;;;;;;;22.88;7.07;;;;;;;;;;1490317;39;20378;-83
2021/07/16 20:31:50;;;;;;;23.40;5.90;;;;;;;;;;1492609;39;20426;-81
2021/07/16 20:32:53;;;;;;;23.38;6.35;;;;;;;;;;1485736;40;20868;-81
2021/07/16 20:33:54;;;;;;;25.30;7.20;;;;;;;;;;1485438;39;20493;-81
2021/07/16 20:34:56;;;;;;;22.73;6.07;;;;;;;;;;1489664;39;20424;-81
2021/07/16 20:35:57;;;;;;;22.85;6.55;;;;;;;;;;1490111;39;20461;-82
2021/07/16 20:36:59;;;;;;;24.53;7.13;;;;;;;;;;1485579;40;20406;-82
2021/07/16 20:38:00;;;;;;;28.30;7.68;;;;;;;;;;1476551;40;20751;-82
2021/07/16 20:39:03;;;;;;;24.27;7.55;;;;;;;;;;1481641;39;20864;-81
2021/07/16 20:40:10;;;;;;;26.02;6.75;;;;;;;;;;1485759;40;20613;-81
2021/07/16 20:41:12;;;;;;;23.88;6.38;;;;;;;;;;1486082;39;20379;-82
2021/07/16 20:42:13;;;;;;;29.08;8.05;;;;;;;;;;1485739;39;20403;-82
2021/07/16 20:43:19;;;;;;;26.42;6.82;;;;;;;;;;1485046;39;20525;-81
2021/07/16 20:44:21;;;;;;;24.23;6.68;;;;;;;;;;1489375;39;20386;-81
2021/07/16 20:45:22;;;;;;;26.92;6.93;;;;;;;;;;1487080;39;20510;-82
2021/07/16 20:46:24;;;;;;;22.48;7.03;;;;;;;;;;1481780;40;20415;-81
2021/07/16 20:47:26;;;;;;;23.75;7.03;;;;;;;;;;1484941;39;20473;-81
2021/07/16 20:48:27;;;;;;;23.35;7.38;;;;;;;;;;1481470;40;20486;-81
2021/07/16 20:49:29;;;;;;;23.75;6.68;;;;;;;;;;1482082;40;20420;-81
2021/07/16 20:50:31;;;;;;;25.33;6.73;;;;;;;;;;1478038;40;20574;-81
2021/07/16 20:51:32;;;;;;;26.67;7.72;;;;;;;;;;1477843;40;20965;-81
2021/07/16 20:52:34;;;;;;;30.10;7.45;;;;;;;;;;1486275;40;20391;-81
2021/07/16 20:53:38;;;;;;;25.58;7.50;;;;;;;;;;1481609;39;20489;-81
2021/07/16 20:54:40;;;;;;;23.92;6.55;;;;;;;;;;1478311;40;20694;-83
2021/07/16 20:55:42;;;;;;;26.40;7.45;;;;;;;;;;1476540;39;20429;-81
2021/07/16 20:56:43;;;;;;;23.70;6.30;;;;;;;;;;1490108;39;20401;-83
2021/07/16 20:57:45;;;;;;;26.20;6.07;;;;;;;;;;1495335;39;20415;-82
2021/07/16 20:58:47;;;;;;;24.08;6.55;;;;;;;;;;1494890;39;20418;-83
2021/07/16 20:59:48;;;;;;;26.65;7.07;;;;;;;;;;1485328;39;20431;-81
2021/07/16 21:00:50;;;;;;;22.25;6.70;;;;;;;;;;1482468;40;20499;-82
2021/07/16 21:01:51;;;;;;;30.85;7.40;;;;;;;;;;1482117;40;20408;-81
2021/07/16 21:02:53;;;;;;;30.85;8.13;;;;;;;;;;1481610;40;20417;-81
2021/07/16 21:03:55;;;;;;;23.30;7.07;;;;;;;;;;1482085;40;20396;-80
2021/07/16 21:04:57;;;;;;;24.35;6.55;;;;;;;;;;1482009;40;20424;-81
2021/07/16 21:05:59;;;;;;;26.17;6.80;;;;;;;;;;1477698;40;20406;-82
2021/07/16 21:07:01;;;;;;;24.83;7.03;;;;;;;;;;1485309;39;20527;-82
2021/07/16 21:08:03;;;;;;;28.15;7.90;;;;;;;;;;1490510;39;20453;-80
2021/07/16 21:09:05;;;;;;;24.77;6.28;;;;;;;;;;1485917;40;20509;-81
2021/07/16 21:10:07;;;;;;;21.05;6.75;;;;;;;;;;1486517;39;20469;-81
2021/07/16 21:11:12;;;;;;;25.05;7.35;;;;;;;;;;1490439;39;20398;-84
2021/07/16 21:12:13;;;;;;;24.98;6.50;;;;;;;;;;1481324;40;20488;-82
2021/07/16 21:13:15;;;;;;;26.08;8.10;;;;;;;;;;1481727;40;20416;-83
2021/07/16 21:14:20;;;;;;;22.67;7.07;;;;;;;;;;1482457;40;20400;-82
2021/07/16 21:15:21;;;;;;;29.08;7.90;;;;;;;;;;1486921;39;20410;-81
2021/07/16 21:16:23;;;;;;;29.75;8.38;;;;;;;;;;1490503;39;20781;-82
2021/07/16 21:17:25;;;;;;;21.38;6.35;;;;;;;;;;1482800;40;20456;-82
2021/07/16 21:18:29;;;;;;;29.50;7.97;;;;;;;;;;1485633;39;20418;-81
2021/07/16 21:19:31;;;;;;;29.85;8.00;;;;;;;;;;1486119;40;20423;-82
2021/07/16 21:20:32;;;;;;;28.20;8.50;;;;;;;;;;1478466;40;20528;-81
2021/07/16 21:21:34;;;;;;;30.83;7.97;;;;;;;;;;1481642;39;20412;-81
2021/07/16 21:22:36;;;;;;;31.55;8.63;;;;;;;;;;1489453;39;20445;-82
2021/07/16 21:23:37;;;;;;;22.83;6.22;;;;;;;;;;1488604;39;20794;-81
2021/07/16 21:24:39;;;;;;;26.58;7.30;;;;;;;;;;1492457;39;20905;-82
2021/07/16 21:25:41;;;;;;;29.77;7.22;;;;;;;;;;1489364;39;20629;-82
2021/07/16 21:26:42;;;;;;;27.77;7.90;;;;;;;;;;1489567;39;20452;-82
2021/07/16 21:27:44;;;;;;;28.60;6.93;;;;;;;;;;1484456;40;20854;-83
2021/07/16 21:28:46;;;;;;;22.35;7.00;;;;;;;;;;1476660;40;20784;-84
2021/07/16 21:29:48;;;;;;;30.42;7.47;;;;;;;;;;1485048;39;20808;-83
2021/07/16 21:30:49;;;;;;;24.88;7.82;;;;;;;;;;1484537;39;20421;-83
2021/07/16 21:31:51;;;;;;;25.55;7.22;;;;;;;;;;1484938;40;20411;-80
2021/07/16 21:32:53;;;;;;;25.40;6.68;;;;;;;;;;1481941;39;20390;-82
2021/07/16 21:33:55;;;;;;;23.67;6.67;;;;;;;;;;1489295;39;20418;-82
2021/07/16 21:34:57;;;;;;;24.30;6.43;;;;;;;;;;1485399;40;20557;-82
2021/07/16 21:35:59;;;;;;;26.85;7.15;;;;;;;;;;1485697;39;20431;-82
2021/07/16 21:37:01;;;;;;;30.73;7.85;;;;;;;;;;1486322;39;20421;-83
2021/07/16 21:38:03;;;;;;;29.17;7.15;;;;;;;;;;1489699;39;20457;-81
2021/07/16 21:39:05;;;;;;;22.48;7.03;;;;;;;;;;1494282;39;20592;-81
2021/07/16 21:40:08;;;;;;;27.48;8.20;;;;;;;;;;1488140;39;20507;-81
2021/07/16 21:41:10;;;;;;;29.77;7.53;;;;;;;;;;1485255;39;20415;-81
2021/07/16 21:42:12;;;;;;;25.95;7.03;;;;;;;;;;1485538;39;20494;-81
2021/07/16 21:43:13;;;;;;;28.13;8.23;;;;;;;;;;1480911;40;20491;-80
2021/07/16 21:44:15;;;;;;;22.00;7.07;;;;;;;;;;1480734;39;20884;-82
2021/07/16 21:45:17;;;;;;;27.13;7.72;;;;;;;;;;1480776;40;20420;-81
2021/07/16 21:46:18;;;;;;;26.48;6.95;;;;;;;;;;1481291;39;20411;-81
2021/07/16 21:47:20;;;;;;;24.23;7.03;;;;;;;;;;1481004;40;20794;-82
2021/07/16 21:48:22;;;;;;;28.38;7.38;;;;;;;;;;1477012;40;20532;-81
2021/07/16 21:49:23;;;;;;;24.80;6.68;;;;;;;;;;1486632;39;20477;-81
2021/07/16 21:50:25;;;;;;;28.35;7.90;;;;;;;;;;1484943;40;20410;-80
2021/07/16 21:51:27;;;;;;;24.10;6.95;;;;;;;;;;1481035;39;20463;-80
2021/07/16 21:52:28;;;;;;;26.65;7.68;;;;;;;;;;1489471;39;20552;-82
2021/07/16 21:53:30;;;;;;;27.27;6.65;;;;;;;;;;1494018;39;20406;-80
2021/07/16 21:54:32;;;;;;;24.95;7.63;;;;;;;;;;1492986;39;20419;-80
2021/07/16 21:55:33;;;;;;;28.10;7.32;;;;;;;;;;1489541;39;20429;-81
2021/07/16 21:56:35;;;;;;;25.75;7.47;;;;;;;;;;1489318;39;20413;-81
2021/07/16 21:57:37;;;;;;;24.58;7.20;;;;;;;;;;1489188;39;20428;-81
2021/07/16 21:58:39;;;;;;;29.13;7.15;;;;;;;;;;1484867;40;20560;-80
2021/07/16 21:59:40;;;;;;;25.98;7.97;;;;;;;;;;1484926;39;20411;-80
2021/07/16 22:00:42;;;;;;;31.52;7.50;;;;;;;;;;1481326;40;20444;-80
2021/07/16 22:01:45;;;;;;;29.90;8.38;;;;;;;;;;1476920;40;20409;-82
2021/07/16 22:03:00;;;;;;;29.30;7.10;;;;;;;;;;1487862;39;20542;-82
2021/07/16 22:04:02;;;;;;;24.35;7.00;;;;;;;;;;1493561;39;20699;-81
2021/07/16 22:05:09;;;;;;;25.20;6.95;;;;;;;;;;1480388;40;20464;-81
2021/07/16 22:06:13;;;;;;;27.15;8.00;;;;;;;;;;1477512;40;20419;-80
2021/07/16 22:07:16;;;;;;;26.67;7.15;;;;;;;;;;1485481;39;20486;-81
2021/07/16 22:08:22;;;;;;;25.55;7.63;;;;;;;;;;1489489;39;20446;-80
2021/07/16 22:09:25;;;;;;;18.92;7.03;;;;;;;;;;1488933;39;20425;-80